createdAt,value
2019-05-09T00:02:40.400Z,26.50
2019-05-09T00:05:13.824Z,26.50
2019-05-09T00:07:44.088Z,26.50
2019-05-09T00:10:15.447Z,26.50
2019-05-09T00:12:46.149Z,26.50
2019-05-09T00:15:17.369Z,26.60
2019-05-09T00:17:48.217Z,26.50
2019-05-09T00:20:20.584Z,26.60
2019-05-09T00:22:53.838Z,26.60
2019-05-09T00:25:24.312Z,26.60
2019-05-09T00:27:54.976Z,26.60
2019-05-09T00:30:27.018Z,26.60
2019-05-09T00:32:57.871Z,26.60
2019-05-09T00:35:30.135Z,26.60
2019-05-09T00:38:04.081Z,26.60
2019-05-09T00:40:34.952Z,26.70
2019-05-09T00:43:05.946Z,26.70
2019-05-09T00:45:38.044Z,26.70
2019-05-09T00:48:09.143Z,26.70
2019-05-09T00:50:40.090Z,26.70
2019-05-09T00:53:11.005Z,26.70
2019-05-09T00:55:43.596Z,26.80
2019-05-09T00:58:15.260Z,26.90
2019-05-09T01:00:46.567Z,26.90
2019-05-09T01:03:17.457Z,26.90
2019-05-09T01:05:49.263Z,26.90
2019-05-09T01:08:20.112Z,27.00
2019-05-09T01:10:52.913Z,27.10
2019-05-09T01:13:23.236Z,27.20
2019-05-09T01:15:54.016Z,27.20
2019-05-09T01:18:25.196Z,27.20
2019-05-09T01:20:57.026Z,27.30
2019-05-09T01:23:28.473Z,27.20
2019-05-09T01:25:59.463Z,27.30
2019-05-09T01:28:30.363Z,27.30
2019-05-09T01:31:01.256Z,27.40
2019-05-09T01:33:33.516Z,27.40
2019-05-09T01:36:04.516Z,27.40
2019-05-09T01:38:35.477Z,27.40
2019-05-09T01:41:07.418Z,27.40
2019-05-09T01:43:38.250Z,27.40
2019-05-09T01:46:09.132Z,27.40
2019-05-09T01:48:39.970Z,27.40
2019-05-09T01:51:10.977Z,27.40
2019-05-09T01:53:43.735Z,27.40
2019-05-09T01:56:15.535Z,27.40
2019-05-09T01:58:49.273Z,27.40
2019-05-09T02:01:20.050Z,27.50
2019-05-09T02:03:50.856Z,27.50
2019-05-09T02:06:24.123Z,27.60
2019-05-09T02:08:54.935Z,27.60
2019-05-09T02:11:39.472Z,27.70
2019-05-09T02:13:58.123Z,27.70
2019-05-09T02:16:30.219Z,27.80
2019-05-09T02:19:05.218Z,27.80
2019-05-09T02:21:35.926Z,27.90
2019-05-09T02:24:07.294Z,27.90
2019-05-09T02:26:38.030Z,28.00
2019-05-09T02:29:08.945Z,28.00
2019-05-09T02:31:39.920Z,28.10
2019-05-09T02:34:14.547Z,28.10
2019-05-09T02:36:42.958Z,28.20
2019-05-09T02:39:14.476Z,28.20
2019-05-09T02:42:00.798Z,28.30
2019-05-09T02:44:19.610Z,28.30
2019-05-09T02:46:52.097Z,28.30
2019-05-09T02:49:22.958Z,28.30
2019-05-09T02:51:53.695Z,28.40
2019-05-09T02:54:25.327Z,28.40
2019-05-09T02:56:58.045Z,28.40
2019-05-09T02:59:29.648Z,28.40
2019-05-09T03:02:01.663Z,28.50
2019-05-09T03:04:32.642Z,28.50
2019-05-09T03:07:03.749Z,28.50
2019-05-09T03:09:34.776Z,28.50
2019-05-09T03:12:35.262Z,28.50
2019-05-09T03:15:02.000Z,28.50
2019-05-09T03:17:33.160Z,28.50
2019-05-09T03:20:05.352Z,28.60
2019-05-09T03:22:39.284Z,28.60
2019-05-09T03:25:09.299Z,28.70
2019-05-09T03:27:41.626Z,28.70
2019-05-09T03:30:14.126Z,28.80
2019-05-09T03:32:44.951Z,28.90
2019-05-09T03:35:17.267Z,28.90
2019-05-09T03:37:49.515Z,29.00
2019-05-09T03:40:20.539Z,29.00
2019-05-09T03:42:51.315Z,29.00
2019-05-09T03:45:22.323Z,29.10
2019-05-09T03:47:54.494Z,29.10
2019-05-09T03:50:27.858Z,29.20
2019-05-09T03:52:58.022Z,29.20
2019-05-09T03:55:32.883Z,29.20
2019-05-09T03:58:07.344Z,29.30
2019-05-09T04:00:37.553Z,29.40
2019-05-09T04:03:08.688Z,29.40
2019-05-09T04:05:39.533Z,29.40
2019-05-09T04:08:12.007Z,29.50
2019-05-09T04:10:42.845Z,29.60
2019-05-09T04:13:13.593Z,29.60
2019-05-09T04:15:44.431Z,29.70
2019-05-09T04:18:17.516Z,29.80
2019-05-09T04:20:52.577Z,29.80
2019-05-09T04:23:23.326Z,29.80
2019-05-09T04:25:53.889Z,29.90
2019-05-09T04:28:24.919Z,29.90
2019-05-09T04:30:57.589Z,29.90
2019-05-09T04:33:28.098Z,29.90
2019-05-09T04:36:11.932Z,29.90
2019-05-09T04:38:43.373Z,29.90
2019-05-09T04:41:16.407Z,30.00
2019-05-09T04:43:48.574Z,30.10
2019-05-09T04:46:24.197Z,30.10
2019-05-09T04:48:54.091Z,30.00
2019-05-09T04:51:23.344Z,30.00
2019-05-09T04:53:54.276Z,30.00
2019-05-09T04:56:27.894Z,30.00
2019-05-09T04:58:58.585Z,29.90
2019-05-09T05:01:30.873Z,29.80
2019-05-09T05:04:01.909Z,29.80
2019-05-09T05:06:33.099Z,29.70
2019-05-09T05:09:03.974Z,29.70
2019-05-09T05:11:35.009Z,29.70
2019-05-09T05:14:09.098Z,29.70
2019-05-09T05:16:39.331Z,29.60
2019-05-09T05:19:10.346Z,29.60
2019-05-09T05:21:41.287Z,29.60
2019-05-09T05:24:14.210Z,29.60
2019-05-09T05:26:48.473Z,29.60
2019-05-09T05:29:19.401Z,29.50
2019-05-09T05:31:52.373Z,29.50
2019-05-09T05:34:27.446Z,29.50
2019-05-09T05:36:59.235Z,29.50
2019-05-09T05:39:30.265Z,29.50
2019-05-09T05:42:01.978Z,29.40
2019-05-09T05:44:32.962Z,29.40
2019-05-09T05:47:03.790Z,29.40
2019-05-09T05:49:34.886Z,29.50
2019-05-09T05:52:07.902Z,29.40
2019-05-09T05:54:38.282Z,29.50
2019-05-09T05:57:09.377Z,29.40
2019-05-09T05:59:41.048Z,29.50
2019-05-09T06:02:12.485Z,29.50
2019-05-09T06:04:43.695Z,29.50
2019-05-09T06:07:14.542Z,29.60
2019-05-09T06:09:45.376Z,29.60
2019-05-09T06:12:18.368Z,29.60
2019-05-09T06:14:48.479Z,29.60
2019-05-09T06:17:19.546Z,29.70
2019-05-09T06:19:50.406Z,29.70
2019-05-09T06:22:21.390Z,29.70
2019-05-09T06:24:58.256Z,29.80
2019-05-09T06:27:29.152Z,29.80
2019-05-09T06:30:00.144Z,29.80
2019-05-09T06:32:31.944Z,29.90
2019-05-09T06:35:02.781Z,29.90
2019-05-09T06:37:34.856Z,30.00
2019-05-09T06:40:08.168Z,30.00
2019-05-09T06:42:39.212Z,30.10
2019-05-09T06:45:14.602Z,30.20
2019-05-09T06:47:49.091Z,30.20
2019-05-09T06:50:21.576Z,30.30
2019-05-09T06:52:53.668Z,30.40
2019-05-09T06:55:24.701Z,30.60
2019-05-09T06:57:58.113Z,30.70
2019-05-09T07:00:31.389Z,30.80
2019-05-09T07:03:03.409Z,30.90
2019-05-09T07:05:35.891Z,31.10
2019-05-09T07:08:08.204Z,31.10
2019-05-09T07:10:39.098Z,31.20
2019-05-09T07:13:09.885Z,31.30
2019-05-09T07:15:43.387Z,31.30
2019-05-09T07:18:14.305Z,31.30
2019-05-09T07:20:45.428Z,31.30
2019-05-09T07:23:17.761Z,31.40
2019-05-09T07:25:50.798Z,31.40
2019-05-09T07:28:21.811Z,31.40
2019-05-09T07:30:53.791Z,31.40
2019-05-09T07:33:27.834Z,31.40
2019-05-09T07:35:59.167Z,31.40
2019-05-09T07:38:31.475Z,31.40
2019-05-09T07:41:02.612Z,31.30
2019-05-09T07:43:33.670Z,31.20
2019-05-09T07:46:08.351Z,31.20
2019-05-09T07:48:39.752Z,31.10
2019-05-09T07:51:10.882Z,31.10
2019-05-09T07:53:41.626Z,31.10
2019-05-09T07:56:13.027Z,31.10
2019-05-09T07:58:47.611Z,31.10
2019-05-09T08:01:19.033Z,31.10
2019-05-09T08:03:49.811Z,31.10
2019-05-09T08:06:20.913Z,31.10
2019-05-09T08:08:53.160Z,31.10
2019-05-09T08:11:42.119Z,31.00
2019-05-09T08:14:11.932Z,31.00
2019-05-09T08:16:43.451Z,31.00
2019-05-09T08:19:14.477Z,30.90
2019-05-09T08:21:47.731Z,30.90
2019-05-09T08:24:18.329Z,30.90
2019-05-09T08:26:52.339Z,30.90
2019-05-09T08:29:23.734Z,30.90
2019-05-09T08:31:54.562Z,30.80
2019-05-09T08:34:28.628Z,30.90
2019-05-09T08:36:59.918Z,30.90
2019-05-09T08:39:32.597Z,30.90
2019-05-09T08:42:20.133Z,30.90
2019-05-09T08:44:51.130Z,30.90
2019-05-09T08:47:22.038Z,30.80
2019-05-09T08:49:54.325Z,30.80
2019-05-09T08:52:25.242Z,30.80
2019-05-09T08:54:57.828Z,30.60
2019-05-09T08:57:29.244Z,30.40
2019-05-09T09:00:00.218Z,30.40
2019-05-09T09:02:31.249Z,30.20
2019-05-09T09:05:02.144Z,30.10
2019-05-09T09:07:33.003Z,30.00
2019-05-09T09:10:03.986Z,29.90
2019-05-09T09:12:34.857Z,29.80
2019-05-09T09:15:07.811Z,29.70
2019-05-09T09:17:38.927Z,29.70
2019-05-09T09:20:10.208Z,29.70
2019-05-09T09:22:41.024Z,29.60
2019-05-09T09:25:11.854Z,29.50
2019-05-09T09:27:42.721Z,29.40
2019-05-09T09:30:20.780Z,29.30
2019-05-09T09:32:47.739Z,29.10
2019-05-09T09:35:18.654Z,29.00
2019-05-09T09:37:52.293Z,28.80
2019-05-09T09:40:22.772Z,28.70
2019-05-09T09:42:54.265Z,28.60
2019-05-09T09:45:28.053Z,28.40
2019-05-09T09:47:59.314Z,28.30
2019-05-09T09:50:30.329Z,28.20
2019-05-09T09:53:01.403Z,28.10
2019-05-09T09:55:32.016Z,28.10
2019-05-09T09:58:02.938Z,28.00
2019-05-09T10:00:38.209Z,28.00
2019-05-09T10:03:09.469Z,28.00
2019-05-09T10:05:40.376Z,27.90
2019-05-09T10:08:14.024Z,27.80
2019-05-09T10:10:45.172Z,27.70
2019-05-09T10:13:18.318Z,27.60
2019-05-09T10:15:48.338Z,27.40
2019-05-09T10:18:19.014Z,27.30
2019-05-09T10:20:52.456Z,27.10
2019-05-09T10:23:24.171Z,27.00
2019-05-09T10:25:55.028Z,26.90
2019-05-09T10:28:29.797Z,26.80
2019-05-09T10:30:58.094Z,26.80
2019-05-09T10:33:28.993Z,26.70
2019-05-09T10:36:04.196Z,26.70
2019-05-09T10:38:32.299Z,26.70
2019-05-09T10:41:03.368Z,26.60
2019-05-09T10:43:38.859Z,26.60
2019-05-09T10:46:09.273Z,26.60
2019-05-09T10:48:40.825Z,26.60
2019-05-09T10:51:13.174Z,26.60
2019-05-09T10:53:44.089Z,26.60
2019-05-09T10:56:14.931Z,26.60
2019-05-09T10:58:48.011Z,26.50
2019-05-09T11:01:18.470Z,26.50
2019-05-09T11:03:49.425Z,26.50
2019-05-09T11:06:20.624Z,26.50
2019-05-09T11:08:51.296Z,26.50
2019-05-09T11:11:22.283Z,26.50
2019-05-09T11:13:53.068Z,26.50
2019-05-09T11:16:38.707Z,26.40
2019-05-09T11:18:58.321Z,26.40
2019-05-09T11:21:28.852Z,26.40
2019-05-09T11:23:59.935Z,26.40
2019-05-09T11:26:30.591Z,26.30
2019-05-09T11:29:01.421Z,26.30
2019-05-09T11:31:32.199Z,26.30
2019-05-09T11:34:03.022Z,26.20
2019-05-09T11:36:33.866Z,26.20
2019-05-09T11:39:10.245Z,26.20
2019-05-09T11:41:38.481Z,26.20
2019-05-09T11:44:09.256Z,26.30
2019-05-09T11:46:40.050Z,26.20
2019-05-09T11:49:10.938Z,26.20
2019-05-09T11:51:41.875Z,26.20
2019-05-09T11:54:16.146Z,26.30
2019-05-09T11:56:45.083Z,26.20
2019-05-09T11:59:18.243Z,26.20
2019-05-09T12:01:48.439Z,26.20
2019-05-09T12:04:19.383Z,26.20
2019-05-09T12:06:50.345Z,26.20
2019-05-09T12:09:21.125Z,26.20
2019-05-09T12:11:51.853Z,26.20
2019-05-09T12:14:22.890Z,26.20
2019-05-09T12:16:53.682Z,26.20
2019-05-09T12:19:24.538Z,26.20
2019-05-09T12:21:58.083Z,26.20
2019-05-09T12:24:29.614Z,26.10
2019-05-09T12:27:02.837Z,26.20
2019-05-09T12:29:32.050Z,26.20
2019-05-09T12:32:03.082Z,26.10
2019-05-09T12:34:34.047Z,26.10
2019-05-09T12:37:04.871Z,26.10
2019-05-09T12:39:37.707Z,26.10
2019-05-09T12:42:08.815Z,26.10
2019-05-09T12:44:39.897Z,26.00
2019-05-09T12:47:10.963Z,26.00
2019-05-09T12:49:41.982Z,26.00
2019-05-09T12:52:13.157Z,26.00
2019-05-09T12:54:44.053Z,26.10
2019-05-09T12:57:14.919Z,26.00
2019-05-09T12:59:49.130Z,26.00
2019-05-09T13:02:17.939Z,26.00
2019-05-09T13:04:48.761Z,26.00
2019-05-09T13:07:19.571Z,26.10
2019-05-09T13:09:52.729Z,26.00
2019-05-09T13:12:25.205Z,26.10
2019-05-09T13:14:57.890Z,26.10
2019-05-09T13:17:29.583Z,26.10
2019-05-09T13:20:00.581Z,26.20
2019-05-09T13:22:31.418Z,26.20
2019-05-09T13:25:02.928Z,26.10
2019-05-09T13:27:34.092Z,26.10
2019-05-09T13:30:08.146Z,26.10
2019-05-09T13:32:38.463Z,26.10
2019-05-09T13:35:09.529Z,26.10
2019-05-09T13:37:40.449Z,26.10
2019-05-09T13:40:11.264Z,26.10
2019-05-09T13:42:42.121Z,26.10
2019-05-09T13:45:13.133Z,26.10
2019-05-09T13:47:43.842Z,26.10
2019-05-09T13:50:14.957Z,26.10
2019-05-09T13:52:47.830Z,26.10
2019-05-09T13:55:18.054Z,26.10
2019-05-09T13:57:49.034Z,26.10
2019-05-09T14:00:20.303Z,26.10
2019-05-09T14:02:51.287Z,26.10
2019-05-09T14:05:21.956Z,26.20
2019-05-09T14:07:55.004Z,26.20
2019-05-09T14:10:25.470Z,26.10
2019-05-09T14:13:06.801Z,26.20
2019-05-09T14:15:28.397Z,26.20
2019-05-09T14:17:59.293Z,26.20
2019-05-09T14:20:30.511Z,26.20
2019-05-09T14:23:01.304Z,26.20
2019-05-09T14:25:32.277Z,26.20
2019-05-09T14:28:03.113Z,26.20
2019-05-09T14:30:33.826Z,26.20
2019-05-09T14:33:04.716Z,26.20
2019-05-09T14:35:35.582Z,26.20
2019-05-09T14:38:08.229Z,26.10
2019-05-09T14:40:38.875Z,26.10
2019-05-09T14:43:09.866Z,26.10
2019-05-09T14:45:40.908Z,26.10
2019-05-09T14:48:11.649Z,26.10
2019-05-09T14:50:42.523Z,26.10
2019-05-09T14:53:13.415Z,26.10
2019-05-09T14:55:44.261Z,26.10
2019-05-09T14:58:17.803Z,26.10
2019-05-09T15:00:48.021Z,26.20
2019-05-09T15:03:19.050Z,26.20
2019-05-09T15:05:51.515Z,26.20
2019-05-09T15:08:22.165Z,26.20
2019-05-09T15:10:53.191Z,26.20
2019-05-09T15:13:23.880Z,26.20
2019-05-09T15:15:54.643Z,26.20
2019-05-09T15:18:25.195Z,26.20
2019-05-09T15:20:57.989Z,26.20
2019-05-09T15:23:29.157Z,26.20
2019-05-09T15:26:00.177Z,26.20
2019-05-09T15:28:31.021Z,26.20
2019-05-09T15:31:01.860Z,26.20
2019-05-09T15:33:32.658Z,26.20
2019-05-09T15:36:03.364Z,26.20
2019-05-09T15:38:34.205Z,26.20
2019-05-09T15:41:05.232Z,26.10
2019-05-09T15:43:38.157Z,26.10
2019-05-09T15:46:10.016Z,26.20
2019-05-09T15:48:40.797Z,26.10
2019-05-09T15:51:11.711Z,26.10
2019-05-09T15:53:42.717Z,26.10
2019-05-09T15:56:13.631Z,26.10
2019-05-09T15:58:44.474Z,26.20
2019-05-09T16:01:18.151Z,26.10
2019-05-09T16:03:48.794Z,26.10
2019-05-09T16:06:20.549Z,26.20
2019-05-09T16:08:51.692Z,26.20
2019-05-09T16:11:22.548Z,26.20
2019-05-09T16:13:53.416Z,26.20
2019-05-09T16:16:24.379Z,26.20
2019-05-09T16:18:58.062Z,26.10
2019-05-09T16:21:27.891Z,26.10
2019-05-09T16:23:59.409Z,26.10
2019-05-09T16:26:30.614Z,26.10
2019-05-09T16:29:01.547Z,26.10
2019-05-09T16:31:32.294Z,26.10
2019-05-09T16:34:03.224Z,26.10
2019-05-09T16:36:34.165Z,26.10
2019-05-09T16:39:07.379Z,26.10
2019-05-09T16:41:39.256Z,26.00
2019-05-09T16:44:10.313Z,26.00
2019-05-09T16:46:41.279Z,26.10
2019-05-09T16:49:12.339Z,26.00
2019-05-09T16:51:43.028Z,26.00
2019-05-09T16:54:13.890Z,26.00
2019-05-09T16:56:44.604Z,26.00
2019-05-09T16:59:17.550Z,26.00
2019-05-09T17:01:50.209Z,26.00
2019-05-09T17:04:20.337Z,26.00
2019-05-09T17:06:51.152Z,26.10
2019-05-09T17:09:22.441Z,26.10
2019-05-09T17:11:53.420Z,26.10
2019-05-09T17:14:25.410Z,26.10
2019-05-09T17:16:59.591Z,26.10
2019-05-09T17:19:28.460Z,26.10
2019-05-09T17:22:00.671Z,26.10
2019-05-09T17:24:31.615Z,26.00
2019-05-09T17:27:02.393Z,26.00
2019-05-09T17:29:33.245Z,26.00
2019-05-09T17:32:04.154Z,26.00
2019-05-09T17:34:35.214Z,26.00
2019-05-09T17:37:07.912Z,25.90
2019-05-09T17:39:38.772Z,26.00
2019-05-09T17:42:09.645Z,25.90
2019-05-09T17:44:40.513Z,25.90
2019-05-09T17:47:11.541Z,25.90
2019-05-09T17:49:42.369Z,25.90
2019-05-09T17:52:13.336Z,25.90
2019-05-09T17:54:44.387Z,25.90
2019-05-09T17:57:15.592Z,25.90
2019-05-09T17:59:48.771Z,25.90
2019-05-09T18:02:18.562Z,25.90
2019-05-09T18:04:49.397Z,25.90
2019-05-09T18:07:20.301Z,25.90
2019-05-09T18:09:51.336Z,26.00
2019-05-09T18:12:22.047Z,26.00
2019-05-09T18:14:52.824Z,25.90
2019-05-09T18:17:23.651Z,25.90
2019-05-09T18:19:54.550Z,25.90
2019-05-09T18:22:25.514Z,25.90
2019-05-09T18:24:57.707Z,26.00
2019-05-09T18:27:28.711Z,26.10
2019-05-09T18:29:59.476Z,26.10
2019-05-09T18:32:30.235Z,26.10
2019-05-09T18:35:02.237Z,26.10
2019-05-09T18:37:33.096Z,26.10
2019-05-09T18:40:04.090Z,26.10
2019-05-09T18:42:35.006Z,26.10
2019-05-09T18:45:08.060Z,26.10
2019-05-09T18:47:38.777Z,26.10
2019-05-09T18:50:11.126Z,26.00
2019-05-09T18:52:42.027Z,26.00
2019-05-09T18:55:13.757Z,26.00
2019-05-09T18:57:44.750Z,26.00
2019-05-09T19:00:18.346Z,26.00
2019-05-09T19:02:49.399Z,26.00
2019-05-09T19:05:21.069Z,26.10
2019-05-09T19:07:51.884Z,26.00
2019-05-09T19:10:23.042Z,26.00
2019-05-09T19:12:53.891Z,26.00
2019-05-09T19:15:26.115Z,26.00
2019-05-09T19:17:58.304Z,26.00
2019-05-09T19:20:30.467Z,25.90
2019-05-09T19:23:01.278Z,25.90
2019-05-09T19:25:32.188Z,25.90
2019-05-09T19:28:03.060Z,25.90
2019-05-09T19:30:34.621Z,25.80
2019-05-09T19:33:05.828Z,25.80
2019-05-09T19:35:36.836Z,25.80
2019-05-09T19:38:07.719Z,25.80
2019-05-09T19:40:38.576Z,25.90
2019-05-09T19:43:09.550Z,25.90
2019-05-09T19:45:40.296Z,25.90
2019-05-09T19:48:11.066Z,25.90
2019-05-09T19:50:41.788Z,25.90
2019-05-09T19:53:12.747Z,25.90
2019-05-09T19:55:43.569Z,25.80
2019-05-09T19:58:14.329Z,25.80
2019-05-09T20:00:45.238Z,25.80
2019-05-09T20:03:15.937Z,25.80
2019-05-09T20:05:46.729Z,25.80
2019-05-09T20:08:17.695Z,25.80
2019-05-09T20:10:49.793Z,25.80
2019-05-09T20:13:21.736Z,25.80
2019-05-09T20:15:52.527Z,25.80
2019-05-09T20:18:23.223Z,25.70
2019-05-09T20:20:54.171Z,25.70
2019-05-09T20:23:25.089Z,25.80
2019-05-09T20:25:55.960Z,25.80
2019-05-09T20:28:26.793Z,25.90
2019-05-09T20:30:57.778Z,25.80
2019-05-09T20:33:28.537Z,25.90
2019-05-09T20:35:59.345Z,25.90
2019-05-09T20:38:30.239Z,25.90
2019-05-09T20:41:01.216Z,25.90
2019-05-09T20:43:32.227Z,25.80
2019-05-09T20:46:03.624Z,25.80
2019-05-09T20:48:34.529Z,25.80
2019-05-09T20:51:05.407Z,25.80
2019-05-09T20:53:36.601Z,25.80
2019-05-09T20:56:07.558Z,25.80
2019-05-09T20:58:38.771Z,25.70
2019-05-09T21:01:09.762Z,25.70
2019-05-09T21:03:40.763Z,25.70
2019-05-09T21:06:11.576Z,25.70
2019-05-09T21:08:42.558Z,25.70
2019-05-09T21:11:13.566Z,25.70
2019-05-09T21:13:48.314Z,25.70
2019-05-09T21:16:17.091Z,25.70
2019-05-09T21:18:48.245Z,25.80
2019-05-09T21:21:19.328Z,25.80
2019-05-09T21:23:50.359Z,25.90
2019-05-09T21:26:21.950Z,25.80
2019-05-09T21:28:53.092Z,25.90
2019-05-09T21:31:24.190Z,25.90
2019-05-09T21:33:55.221Z,25.90
2019-05-09T21:36:26.074Z,25.90
2019-05-09T21:38:56.925Z,25.90
2019-05-09T21:41:27.679Z,25.90
2019-05-09T21:43:58.390Z,25.90
2019-05-09T21:46:29.183Z,25.90
2019-05-09T21:49:00.000Z,25.90
2019-05-09T21:51:30.686Z,25.90
2019-05-09T21:54:01.607Z,25.90
2019-05-09T21:56:32.551Z,25.90
2019-05-09T21:59:03.581Z,25.90
2019-05-09T22:01:34.734Z,25.90
2019-05-09T22:04:05.737Z,25.90
2019-05-09T22:06:36.756Z,25.90
2019-05-09T22:09:10.289Z,25.90
2019-05-09T22:11:41.846Z,25.90
2019-05-09T22:14:12.637Z,25.90
2019-05-09T22:16:44.318Z,25.90
2019-05-09T22:19:15.264Z,25.90
2019-05-09T22:21:46.260Z,25.90
2019-05-09T22:24:17.178Z,25.90
2019-05-09T22:26:47.983Z,25.90
